Time;durP1;ratioP1;P1;durP2;ratioP2;P2;SDS_P1;SDS_P2;PMS_P1;PMS_P2;Temp;Humidity;BMP_temperature;BMP_pressure;BME280_temperature;BME280_humidity;BME280_pressure;Samples;Min_cycle;Max_cycle;Signal;HPM_P1;HPM_P2
2022/12/16 00:00:08;;;;;;;33.42;19.70;;;0.50;99.90;;;;;;5113646;27;20408;-88
2022/12/16 00:02:34;;;;;;;34.55;19.33;;;0.40;99.90;;;;;;5131125;27;20074;-88
2022/12/16 00:05:00;;;;;;;33.63;19.17;;;0.50;99.90;;;;;;5132049;27;20531;-88
2022/12/16 00:07:25;;;;;;;30.13;19.10;;;0.50;99.90;;;;;;5125022;27;20023;-87
2022/12/16 00:09:51;;;;;;;37.30;22.00;;;0.50;99.90;;;;;;5111324;28;20736;-87
2022/12/16 00:12:16;;;;;;;60.00;20.42;;;0.50;99.90;;;;;;5110784;28;20042;-87
2022/12/16 00:14:42;;;;;;;36.50;21.08;;;0.50;99.90;;;;;;5110274;28;20630;-87
2022/12/16 00:17:08;;;;;;;32.40;19.42;;;0.50;99.90;;;;;;5111045;28;20043;-88
2022/12/16 00:19:34;;;;;;;33.50;19.25;;;0.50;99.90;;;;;;5100718;27;20089;-88
2022/12/16 00:21:59;;;;;;;31.75;17.50;;;0.60;99.90;;;;;;5093163;28;20043;-88
2022/12/16 00:24:25;;;;;;;31.58;19.20;;;0.60;99.90;;;;;;5092958;28;20119;-88
2022/12/16 00:26:51;;;;;;;33.92;20.42;;;0.60;99.90;;;;;;5118774;27;20036;-88
2022/12/16 00:29:17;;;;;;;34.63;19.25;;;0.60;99.90;;;;;;5111083;28;20492;-88
2022/12/16 00:31:46;;;;;;;30.23;17.77;;;0.60;99.90;;;;;;5117953;27;20042;-88
2022/12/16 00:34:13;;;;;;;31.45;16.73;;;0.60;99.90;;;;;;5117382;27;20050;-87
2022/12/16 00:36:38;;;;;;;30.85;18.85;;;0.60;99.90;;;;;;5126256;27;20035;-88
2022/12/16 00:39:04;;;;;;;35.42;20.45;;;0.70;99.90;;;;;;5092737;28;20100;-88
2022/12/16 00:41:29;;;;;;;29.90;19.08;;;0.60;99.90;;;;;;5093072;28;20075;-88
2022/12/16 00:43:55;;;;;;;35.88;18.88;;;0.70;99.90;;;;;;5127541;27;20050;-87
2022/12/16 00:46:20;;;;;;;40.88;21.05;;;0.70;99.90;;;;;;5131942;27;20039;-87
2022/12/16 00:48:46;;;;;;;34.45;20.50;;;0.60;99.90;;;;;;5097640;28;20493;-88
2022/12/16 00:51:11;;;;;;;33.53;18.35;;;0.60;99.90;;;;;;5092840;28;20050;-87
2022/12/16 00:53:37;;;;;;;31.88;19.30;;;0.70;99.90;;;;;;5114595;27;20061;-88
2022/12/16 00:56:13;;;;;;;32.40;19.30;;;0.70;99.90;;;;;;5114945;28;20122;-88
2022/12/16 00:58:39;;;;;;;34.38;19.23;;;0.70;99.90;;;;;;5093181;28;20079;-88
2022/12/16 01:01:05;;;;;;;34.20;20.40;;;0.70;99.90;;;;;;5096624;27;20053;-87
2022/12/16 01:03:31;;;;;;;35.78;20.38;;;0.60;99.90;;;;;;5131418;27;20111;-88
2022/12/16 01:05:56;;;;;;;31.73;19.00;;;0.70;99.90;;;;;;5108172;28;20036;-88
2022/12/16 01:08:22;;;;;;;32.75;20.15;;;0.60;99.90;;;;;;5111156;28;20449;-87
2022/12/16 01:10:53;;;;;;;39.20;20.52;;;0.70;99.90;;;;;;5093227;28;20046;-89
2022/12/16 01:13:19;;;;;;;32.08;19.73;;;0.70;99.90;;;;;;5096048;28;20044;-88
2022/12/16 01:15:45;;;;;;;34.40;20.05;;;0.70;99.90;;;;;;5125101;28;20036;-88
2022/12/16 01:18:10;;;;;;;35.40;18.52;;;0.70;99.90;;;;;;5110297;28;20459;-88
2022/12/16 01:20:37;;;;;;;32.03;16.25;;;0.70;99.90;;;;;;5092508;28;20039;-88
2022/12/16 01:23:03;;;;;;;33.05;18.95;;;0.70;99.90;;;;;;5110567;28;20110;-87
2022/12/16 01:25:29;;;;;;;32.05;19.75;;;0.70;99.90;;;;;;5126095;28;20114;-87
2022/12/16 01:27:54;;;;;;;33.30;19.02;;;0.70;99.90;;;;;;5131354;28;20524;-88
2022/12/16 01:30:20;;;;;;;32.83;20.35;;;0.70;99.90;;;;;;5101455;28;20038;-88
2022/12/16 01:32:46;;;;;;;42.40;21.15;;;0.70;99.90;;;;;;5110403;28;20394;-87
2022/12/16 01:35:12;;;;;;;36.63;20.33;;;0.70;99.90;;;;;;5114631;28;20122;-88
2022/12/16 01:37:38;;;;;;;36.53;20.73;;;0.70;99.90;;;;;;5130744;28;20043;-88
2022/12/16 01:40:05;;;;;;;38.20;21.85;;;0.70;99.90;;;;;;5129782;28;20035;-88
2022/12/16 01:42:32;;;;;;;38.95;22.08;;;0.70;99.90;;;;;;5104432;28;20104;-88
2022/12/16 01:45:23;;;;;;;35.65;19.98;;;0.60;99.90;;;;;;5131352;28;20039;-88
2022/12/16 01:47:53;;;;;;;38.88;21.23;;;0.70;99.90;;;;;;5123823;28;20051;-87
2022/12/16 01:50:19;;;;;;;40.80;22.52;;;0.60;99.90;;;;;;5092246;28;20047;-88
2022/12/16 01:52:52;;;;;;;37.80;20.15;;;0.60;99.90;;;;;;5109700;28;20039;-88
2022/12/16 01:55:23;;;;;;;39.13;21.13;;;0.60;99.90;;;;;;5095141;28;20043;-88
2022/12/16 01:57:53;;;;;;;36.40;20.20;;;0.60;99.90;;;;;;5113594;28;20404;-88
2022/12/16 02:00:19;;;;;;;40.80;22.02;;;0.50;99.90;;;;;;5095576;28;20115;-86
2022/12/16 02:02:46;;;;;;;34.80;19.73;;;0.50;99.90;;;;;;5132863;27;20526;-88
2022/12/16 02:05:20;;;;;;;39.38;22.70;;;0.50;99.90;;;;;;5134055;27;20039;-88
2022/12/16 02:08:11;;;;;;;37.90;22.17;;;0.50;99.90;;;;;;5115856;27;20031;-88
2022/12/16 02:10:42;;;;;;;38.42;21.35;;;0.50;99.90;;;;;;5134124;27;20526;-88
2022/12/16 02:13:26;;;;;;;38.47;21.33;;;0.50;99.90;;;;;;5132480;27;20436;-88
2022/12/16 02:16:04;;;;;;;38.28;20.80;;;0.50;99.90;;;;;;5134120;27;20051;-88
2022/12/16 02:18:39;;;;;;;38.42;20.73;;;0.50;99.90;;;;;;5115268;27;20506;-88
2022/12/16 02:21:35;;;;;;;34.92;19.25;;;0.50;99.90;;;;;;5134128;27;20530;-88
2022/12/16 02:24:14;;;;;;;45.75;23.35;;;0.50;99.90;;;;;;5112153;27;20484;-88
2022/12/16 02:27:01;;;;;;;42.85;23.75;;;0.50;99.90;;;;;;5113288;28;20501;-88
2022/12/16 02:29:46;;;;;;;36.45;22.77;;;0.40;99.90;;;;;;5098332;27;20035;-88
2022/12/16 02:32:41;;;;;;;38.10;22.02;;;0.50;99.90;;;;;;5097369;28;20075;-88
2022/12/16 02:35:29;;;;;;;40.10;22.00;;;0.50;99.90;;;;;;5095524;28;20089;-88
2022/12/16 02:38:14;;;;;;;38.28;22.00;;;0.50;99.90;;;;;;5106622;28;20040;-88
2022/12/16 02:40:51;;;;;;;39.90;19.77;;;0.40;99.90;;;;;;5113000;28;20047;-87
2022/12/16 02:43:30;;;;;;;41.70;23.48;;;0.50;99.90;;;;;;5097788;27;20035;-88
2022/12/16 02:45:56;;;;;;;40.63;21.30;;;0.40;99.90;;;;;;5115690;27;20081;-88
2022/12/16 02:48:22;;;;;;;37.40;21.05;;;0.40;99.90;;;;;;5124380;27;20034;-88
2022/12/16 02:50:50;;;;;;;41.22;21.55;;;0.40;99.90;;;;;;5134741;27;20121;-88
2022/12/16 02:53:18;;;;;;;43.97;22.90;;;0.40;99.90;;;;;;5133126;27;20453;-88
2022/12/16 02:55:59;;;;;;;40.60;23.58;;;0.40;99.90;;;;;;5097853;27;20035;-88
2022/12/16 02:58:58;;;;;;;41.42;23.67;;;0.40;99.90;;;;;;5133297;27;20039;-88
2022/12/16 03:01:40;;;;;;;38.67;22.17;;;0.40;99.90;;;;;;5115125;27;20047;-88
2022/12/16 03:04:11;;;;;;;41.13;22.67;;;0.40;99.90;;;;;;5094365;28;20046;-88
2022/12/16 03:06:41;;;;;;;39.33;22.67;;;0.40;99.90;;;;;;5113168;28;20386;-88
2022/12/16 03:09:10;;;;;;;44.00;23.00;;;0.40;99.90;;;;;;5116562;27;20506;-88
2022/12/16 03:11:38;;;;;;;40.92;23.95;;;0.40;99.90;;;;;;5133827;27;20053;-88
2022/12/16 03:14:07;;;;;;;42.53;24.73;;;0.40;99.90;;;;;;5133431;27;20583;-88
2022/12/16 03:16:33;;;;;;;37.88;21.58;;;0.40;99.90;;;;;;5120918;27;20517;-88
2022/12/16 03:19:02;;;;;;;42.80;23.90;;;0.40;99.90;;;;;;5094580;28;20082;-88
2022/12/16 03:21:42;;;;;;;42.67;23.98;;;0.30;99.90;;;;;;5094842;28;20050;-89
2022/12/16 03:24:12;;;;;;;36.42;21.52;;;0.30;99.90;;;;;;5121155;27;20050;-88
2022/12/16 03:27:12;;;;;;;39.50;21.85;;;0.30;99.90;;;;;;5112871;28;20682;-88
2022/12/16 03:30:03;;;;;;;37.30;20.83;;;0.20;99.90;;;;;;5078545;27;20092;-89
2022/12/16 03:32:40;;;;;;;39.15;21.17;;;0.20;99.90;;;;;;5133073;27;20168;-88
2022/12/16 03:35:22;;;;;;;37.78;20.52;;;0.20;99.90;;;;;;5130479;27;20041;-88
2022/12/16 03:37:51;;;;;;;44.28;21.75;;;0.10;99.90;;;;;;5112411;28;20032;-88
2022/12/16 03:40:18;;;;;;;41.97;23.90;;;0.10;99.90;;;;;;5111626;28;20524;-89
2022/12/16 03:42:44;;;;;;;39.03;21.17;;;0.20;99.90;;;;;;5111437;28;20043;-88
2022/12/16 03:45:15;;;;;;;36.13;19.95;;;0.20;99.90;;;;;;5112003;28;20455;-88
2022/12/16 03:47:41;;;;;;;36.38;20.20;;;0.10;99.90;;;;;;5095358;27;20124;-88
2022/12/16 03:50:08;;;;;;;41.28;21.90;;;0.10;99.90;;;;;;5132872;27;20082;-89
2022/12/16 03:52:34;;;;;;;38.63;21.35;;;0.20;99.90;;;;;;5132519;27;20050;-88
2022/12/16 03:55:00;;;;;;;40.28;22.08;;;0.10;99.90;;;;;;5096664;28;20036;-88
2022/12/16 03:57:26;;;;;;;39.70;23.20;;;0.10;99.90;;;;;;5111764;28;20028;-88
2022/12/16 03:59:51;;;;;;;38.00;21.65;;;0.10;99.90;;;;;;5105295;27;20507;-89
2022/12/16 04:02:17;;;;;;;41.78;22.45;;;0.10;99.90;;;;;;5113742;27;20046;-88
2022/12/16 04:04:42;;;;;;;40.25;23.00;;;0.10;99.90;;;;;;5113813;27;20043;-88
2022/12/16 04:07:20;;;;;;;40.50;21.52;;;0.10;99.90;;;;;;5089716;28;20123;-88
2022/12/16 04:09:47;;;;;;;40.83;23.65;;;0.10;99.90;;;;;;5112317;28;20044;-88
2022/12/16 04:29:18;;;;;;;43.58;24.42;;;0.10;99.90;;;;;;5020630;28;20803;-88
2022/12/16 04:31:43;;;;;;;43.72;21.63;;;0.00;99.90;;;;;;5048065;28;20044;-88
2022/12/16 04:34:28;;;;;;;38.90;21.33;;;0.00;99.90;;;;;;5048029;28;20131;-88
